createdAt,value
2023-03-21T00:01:53.659Z,59.90
2023-03-21T00:04:22.272Z,54.45
2023-03-21T00:06:49.143Z,47.05
2023-03-21T00:09:16.254Z,44.28
2023-03-21T00:11:43.343Z,47.08
2023-03-21T00:14:14.512Z,52.45
2023-03-21T00:16:45.809Z,53.50
2023-03-21T00:19:14.483Z,57.53
2023-03-21T00:22:06.006Z,60.38
2023-03-21T00:24:29.965Z,51.78
2023-03-21T00:27:06.020Z,57.47
2023-03-21T00:29:42.960Z,48.17
2023-03-21T00:32:09.763Z,55.45
2023-03-21T00:34:43.317Z,62.15
2023-03-21T00:37:18.800Z,49.78
2023-03-21T00:39:51.874Z,56.63
2023-03-21T00:42:18.757Z,48.65
2023-03-21T00:44:45.837Z,54.33
2023-03-21T00:47:13.242Z,57.38
2023-03-21T00:49:40.277Z,53.35
2023-03-21T00:52:18.507Z,53.40
2023-03-21T00:54:49.262Z,59.47
2023-03-21T00:57:16.780Z,58.55
2023-03-21T00:59:43.617Z,54.88
2023-03-21T01:02:14.611Z,53.42
2023-03-21T01:04:43.827Z,61.45
2023-03-21T01:07:10.642Z,56.92
2023-03-21T01:09:38.309Z,55.63
2023-03-21T01:12:05.667Z,58.10
2023-03-21T01:14:32.504Z,61.42
2023-03-21T01:16:59.292Z,53.95
2023-03-21T01:19:44.228Z,66.40
2023-03-21T01:22:15.220Z,63.03
2023-03-21T01:24:52.402Z,67.25
2023-03-21T01:27:22.282Z,73.22
2023-03-21T01:29:49.116Z,73.95
2023-03-21T01:32:16.866Z,64.30
2023-03-21T01:34:43.717Z,71.60
2023-03-21T01:37:10.504Z,61.13
2023-03-21T01:39:37.369Z,58.78
2023-03-21T01:42:04.277Z,57.17
2023-03-21T01:44:31.655Z,66.68
2023-03-21T01:47:10.507Z,63.78
2023-03-21T01:49:45.831Z,52.80
2023-03-21T02:00:12.742Z,58.63
2023-03-21T02:02:58.223Z,56.65
2023-03-21T02:05:42.651Z,59.45
2023-03-21T02:08:09.490Z,51.50
2023-03-21T02:10:36.997Z,53.75
2023-03-21T02:13:09.710Z,52.42
2023-03-21T02:15:41.185Z,45.50
2023-03-21T02:18:49.342Z,49.20
2023-03-21T02:21:55.382Z,44.83
2023-03-21T02:24:54.531Z,47.58
2023-03-21T02:27:28.665Z,41.65
2023-03-21T02:30:13.022Z,43.95
2023-03-21T02:33:11.486Z,44.08
2023-03-21T02:36:00.689Z,38.28
2023-03-21T02:38:43.054Z,42.67
2023-03-21T02:41:19.584Z,46.75
2023-03-21T02:44:18.904Z,39.28
2023-03-21T02:47:06.814Z,38.88
2023-03-21T02:49:45.335Z,40.22
2023-03-21T02:52:28.369Z,35.92
2023-03-21T02:55:05.183Z,35.30
2023-03-21T02:57:42.240Z,33.25
2023-03-21T03:00:17.203Z,34.28
2023-03-21T03:02:44.939Z,30.98
2023-03-21T03:05:33.936Z,33.20
2023-03-21T03:08:41.165Z,29.35
2023-03-21T03:11:31.097Z,26.73
2023-03-21T03:17:21.299Z,27.58
2023-03-21T03:20:04.262Z,29.48
2023-03-21T03:23:03.328Z,34.72
2023-03-21T03:25:49.749Z,33.20
2023-03-21T03:28:21.661Z,38.22
2023-03-21T03:31:07.029Z,32.30
2023-03-21T03:33:38.000Z,33.28
2023-03-21T03:36:09.351Z,31.05
2023-03-21T03:38:39.273Z,36.05
2023-03-21T03:41:15.429Z,42.40
2023-03-21T03:43:48.751Z,33.80
2023-03-21T03:48:58.274Z,43.78
2023-03-21T03:51:30.785Z,42.67
2023-03-21T03:54:01.897Z,45.33
2023-03-21T03:56:29.684Z,42.38
2023-03-21T03:58:57.384Z,40.28
2023-03-21T04:01:24.507Z,47.40
2023-03-21T04:04:00.866Z,39.17
2023-03-21T04:06:33.694Z,45.90
2023-03-21T04:09:03.509Z,43.25
2023-03-21T04:11:32.281Z,46.13
2023-03-21T04:13:59.065Z,45.85
2023-03-21T04:16:26.029Z,48.35
2023-03-21T04:18:53.002Z,46.83
2023-03-21T04:21:21.610Z,45.15
2023-03-21T04:23:48.443Z,44.65
2023-03-21T04:26:15.315Z,45.00
2023-03-21T04:28:42.171Z,51.00
2023-03-21T04:31:24.439Z,44.20
2023-03-21T04:33:52.318Z,41.03
2023-03-21T04:40:07.798Z,49.42
2023-03-21T04:42:35.462Z,53.28
2023-03-21T04:45:02.496Z,58.00
2023-03-21T04:47:29.609Z,51.90
2023-03-21T04:49:57.384Z,55.72
2023-03-21T04:52:25.425Z,52.88
2023-03-21T04:54:52.422Z,54.88
2023-03-21T04:57:19.540Z,56.13
2023-03-21T04:59:46.833Z,46.60
2023-03-21T05:02:13.777Z,53.83
2023-03-21T05:04:40.593Z,58.80
2023-03-21T05:07:08.529Z,47.85
2023-03-21T05:09:35.417Z,54.08
2023-03-21T05:12:02.335Z,49.38
2023-03-21T05:14:29.556Z,46.67
2023-03-21T05:16:57.401Z,53.28
2023-03-21T05:19:34.824Z,44.88
2023-03-21T05:22:10.809Z,54.00
2023-03-21T05:24:42.445Z,53.10
2023-03-21T05:27:09.225Z,55.35
2023-03-21T05:29:36.002Z,54.25
2023-03-21T05:32:02.958Z,47.63
2023-03-21T05:34:30.841Z,55.47
2023-03-21T05:36:57.695Z,51.47
2023-03-21T05:39:24.486Z,48.42
2023-03-21T05:41:51.296Z,45.97
2023-03-21T05:44:18.137Z,50.08
2023-03-21T05:46:44.953Z,48.97
2023-03-21T05:49:12.588Z,56.78
2023-03-21T05:51:39.454Z,57.38
2023-03-21T05:54:06.672Z,47.22
2023-03-21T05:56:33.514Z,48.03
2023-03-21T05:59:00.401Z,55.00
2023-03-21T06:01:27.428Z,53.72
2023-03-21T06:03:54.423Z,49.00
2023-03-21T06:06:21.447Z,45.40
2023-03-21T06:08:48.851Z,49.80
2023-03-21T06:11:26.752Z,40.92
2023-03-21T06:13:53.610Z,43.17
2023-03-21T06:16:20.550Z,44.85
2023-03-21T06:18:47.490Z,45.35
2023-03-21T06:21:14.471Z,49.35
2023-03-21T06:23:41.291Z,41.88
2023-03-21T06:26:08.352Z,45.78
2023-03-21T06:28:35.359Z,39.92
2023-03-21T06:31:02.217Z,40.80
2023-03-21T06:33:29.171Z,40.17
2023-03-21T06:35:57.640Z,35.58
2023-03-21T06:38:26.110Z,36.88
2023-03-21T06:40:53.708Z,34.72
2023-03-21T06:43:20.805Z,41.45
2023-03-21T06:45:47.736Z,37.50
2023-03-21T06:48:14.641Z,37.15
2023-03-21T06:50:44.210Z,40.03
2023-03-21T06:53:11.034Z,33.95
2023-03-21T06:55:38.105Z,33.90
2023-03-21T06:58:05.228Z,42.03
2023-03-21T07:00:32.819Z,35.45
2023-03-21T07:03:01.098Z,40.42
2023-03-21T07:05:27.968Z,34.30
2023-03-21T07:07:54.844Z,33.33
2023-03-21T07:10:21.714Z,30.55
2023-03-21T07:12:48.697Z,29.33
2023-03-21T07:15:15.944Z,30.98
2023-03-21T07:17:42.776Z,30.92
2023-03-21T07:20:12.684Z,34.22
2023-03-21T07:22:39.968Z,27.05
2023-03-21T07:25:07.988Z,33.03
2023-03-21T07:27:34.942Z,31.85
2023-03-21T07:30:01.756Z,38.13
2023-03-21T07:32:29.968Z,26.73
2023-03-21T07:34:56.896Z,30.75
2023-03-21T07:37:24.021Z,34.40
2023-03-21T07:39:51.505Z,25.08
2023-03-21T07:42:18.989Z,28.02
2023-03-21T07:44:45.888Z,28.23
2023-03-21T07:47:12.847Z,30.90
2023-03-21T07:49:39.641Z,27.63
2023-03-21T07:52:07.840Z,32.35
2023-03-21T07:54:35.931Z,26.65
2023-03-21T07:57:02.789Z,27.17
2023-03-21T07:59:29.639Z,30.08
2023-03-21T08:01:56.681Z,24.80
2023-03-21T08:04:23.717Z,26.35
2023-03-21T08:06:51.217Z,25.45
2023-03-21T08:09:18.017Z,30.23
2023-03-21T08:11:44.858Z,33.10
2023-03-21T08:14:11.662Z,40.65
2023-03-21T08:16:47.552Z,29.67
2023-03-21T08:19:14.659Z,24.48
2023-03-21T08:21:44.263Z,29.77
2023-03-21T08:24:18.216Z,29.45
2023-03-21T08:26:46.041Z,31.25
2023-03-21T08:29:13.396Z,23.98
2023-03-21T08:31:41.417Z,29.48
2023-03-21T08:34:08.396Z,31.13
2023-03-21T08:36:37.303Z,24.05
2023-03-21T08:39:05.796Z,26.88
2023-03-21T08:41:33.579Z,23.42
2023-03-21T08:44:00.613Z,39.40
2023-03-21T08:46:28.100Z,29.63
2023-03-21T08:48:55.103Z,30.75
2023-03-21T08:51:21.965Z,33.00
2023-03-21T08:53:52.354Z,28.02
2023-03-21T08:56:19.236Z,32.03
2023-03-21T08:58:46.070Z,31.27
2023-03-21T09:01:16.783Z,26.23
2023-03-21T09:03:43.974Z,30.35
2023-03-21T09:06:14.183Z,30.80
2023-03-21T09:08:46.288Z,38.20
2023-03-21T09:11:14.300Z,34.85
2023-03-21T09:13:41.188Z,30.88
2023-03-21T09:16:08.714Z,33.35
2023-03-21T09:18:47.125Z,33.97
2023-03-21T09:21:16.180Z,36.05
2023-03-21T09:23:44.810Z,33.17
2023-03-21T09:26:13.310Z,29.70
2023-03-21T09:28:40.847Z,31.30
2023-03-21T09:31:12.224Z,39.40
2023-03-21T09:33:42.426Z,32.63
2023-03-21T09:36:14.533Z,31.75
2023-03-21T09:38:45.604Z,32.20
2023-03-21T09:41:57.779Z,32.03
2023-03-21T09:44:37.778Z,31.02
2023-03-21T09:47:28.961Z,38.38
2023-03-21T09:50:14.029Z,34.45
2023-03-21T09:53:06.192Z,33.63
2023-03-21T09:55:38.586Z,38.30
2023-03-21T09:58:31.022Z,31.50
2023-03-21T10:01:07.499Z,27.75
2023-03-21T10:03:35.384Z,29.25
2023-03-21T10:06:10.062Z,37.60
2023-03-21T10:08:41.921Z,38.45
2023-03-21T10:11:18.211Z,32.17
2023-03-21T10:13:52.790Z,29.95
2023-03-21T10:16:48.720Z,34.50
2023-03-21T10:19:17.955Z,31.88
2023-03-21T10:22:00.286Z,27.73
2023-03-21T10:24:31.879Z,33.60
2023-03-21T10:26:59.254Z,29.17
2023-03-21T10:29:38.914Z,24.25
2023-03-21T10:32:13.878Z,32.20
2023-03-21T10:37:28.715Z,28.25
2023-03-21T10:39:56.324Z,32.03
2023-03-21T10:42:26.297Z,26.77
2023-03-21T10:45:01.378Z,27.85
2023-03-21T10:47:32.207Z,30.60
2023-03-21T10:50:09.874Z,30.38
2023-03-21T10:52:42.815Z,34.35
2023-03-21T10:55:12.572Z,33.20
2023-03-21T10:57:39.533Z,28.33
2023-03-21T11:00:20.201Z,31.45
2023-03-21T11:02:52.936Z,29.05
2023-03-21T11:05:33.297Z,28.58
2023-03-21T11:08:07.047Z,30.23
2023-03-21T11:10:38.281Z,32.30
2023-03-21T11:13:18.675Z,30.25
2023-03-21T11:15:58.989Z,37.47
2023-03-21T11:18:27.448Z,29.63
2023-03-21T11:21:02.165Z,26.42
2023-03-21T11:23:31.545Z,31.13
2023-03-21T11:26:00.741Z,25.23
2023-03-21T11:28:36.581Z,23.80
2023-03-21T11:31:05.233Z,28.63
2023-03-21T11:33:36.543Z,23.58
2023-03-21T11:36:09.760Z,20.92
2023-03-21T11:41:06.459Z,21.08
2023-03-21T11:43:43.362Z,24.02
2023-03-21T11:46:14.704Z,20.25
2023-03-21T11:48:48.935Z,21.45
2023-03-21T11:51:38.062Z,23.40
2023-03-21T11:54:04.837Z,18.75
2023-03-21T11:56:43.766Z,18.30
2023-03-21T11:59:24.218Z,18.65
2023-03-21T12:01:54.135Z,20.83
2023-03-21T12:04:43.101Z,18.15
2023-03-21T12:07:30.923Z,18.38
2023-03-21T12:10:29.858Z,17.38
2023-03-21T12:13:20.849Z,15.98
2023-03-21T12:16:06.527Z,15.57
2023-03-21T12:18:53.404Z,15.18
2023-03-21T12:21:44.897Z,12.43
2023-03-21T12:24:24.829Z,11.43
2023-03-21T12:27:06.456Z,17.95
2023-03-21T12:30:03.350Z,13.52
2023-03-21T12:32:45.172Z,20.40
2023-03-21T12:35:30.012Z,17.48
2023-03-21T12:38:04.840Z,18.88
2023-03-21T12:40:40.822Z,13.95
2023-03-21T12:43:24.518Z,13.68
2023-03-21T12:45:57.838Z,15.38
2023-03-21T12:48:40.620Z,15.32
2023-03-21T12:51:15.991Z,15.52
2023-03-21T12:53:53.827Z,9.38
2023-03-21T12:56:25.553Z,15.05
2023-03-21T12:59:18.575Z,14.63
2023-03-21T13:01:49.377Z,15.02
2023-03-21T13:04:47.540Z,13.70
2023-03-21T13:07:20.553Z,11.30
2023-03-21T13:09:47.555Z,14.43
2023-03-21T13:12:52.691Z,17.77
2023-03-21T13:15:33.209Z,12.13
2023-03-21T13:18:25.159Z,15.75
2023-03-21T13:20:57.358Z,13.13
2023-03-21T13:23:35.919Z,15.63
2023-03-21T13:26:03.458Z,14.57
2023-03-21T13:28:33.902Z,12.88
2023-03-21T13:31:50.928Z,15.00
2023-03-21T13:34:22.513Z,17.38
2023-03-21T13:36:51.392Z,14.80
2023-03-21T13:39:24.107Z,20.90
2023-03-21T13:41:51.438Z,20.33
2023-03-21T13:44:36.482Z,19.02
2023-03-21T13:47:05.735Z,17.80
2023-03-21T13:49:37.767Z,14.60
2023-03-21T13:52:10.819Z,12.23
2023-03-21T13:57:40.722Z,12.00
2023-03-21T14:00:31.765Z,13.15
2023-03-21T14:03:14.665Z,15.88
2023-03-21T14:05:48.497Z,15.40
2023-03-21T14:08:27.793Z,13.55
2023-03-21T14:11:06.694Z,12.30
2023-03-21T14:13:37.998Z,12.07
2023-03-21T14:16:17.276Z,13.93
2023-03-21T14:18:55.038Z,13.93
2023-03-21T14:21:25.456Z,16.92
2023-03-21T14:24:07.914Z,14.50
2023-03-21T14:26:40.756Z,12.93
2023-03-21T14:29:25.248Z,12.52
2023-03-21T14:31:55.574Z,13.45
2023-03-21T14:34:25.766Z,17.02
2023-03-21T14:36:58.125Z,13.00
2023-03-21T14:42:06.643Z,10.85
2023-03-21T14:44:51.252Z,11.32
2023-03-21T14:47:23.632Z,13.15
2023-03-21T14:49:51.358Z,10.25
2023-03-21T14:52:31.942Z,11.90
2023-03-21T14:55:00.559Z,10.77
2023-03-21T14:57:30.937Z,11.60
2023-03-21T15:00:01.851Z,16.65
2023-03-21T15:02:34.710Z,13.60
2023-03-21T15:05:26.864Z,10.57
2023-03-21T15:08:17.991Z,12.10
2023-03-21T15:11:08.119Z,11.32
2023-03-21T15:13:40.554Z,12.60
2023-03-21T15:16:08.379Z,10.47
2023-03-21T15:18:38.579Z,9.35
2023-03-21T15:21:19.073Z,9.48
2023-03-21T15:23:51.338Z,9.80
2023-03-21T15:26:21.740Z,10.30
2023-03-21T15:28:50.577Z,10.30
2023-03-21T15:31:20.304Z,11.73
2023-03-21T15:33:48.932Z,10.27
2023-03-21T15:36:22.552Z,12.93
2023-03-21T15:38:50.481Z,7.63
2023-03-21T15:41:20.628Z,14.98
2023-03-21T15:44:01.555Z,14.02
2023-03-21T15:46:48.970Z,10.52
2023-03-21T15:49:16.101Z,8.23
2023-03-21T15:52:09.317Z,13.88
2023-03-21T15:54:43.504Z,10.30
2023-03-21T15:57:26.847Z,12.00
2023-03-21T16:02:30.906Z,11.27
2023-03-21T16:05:14.635Z,13.75
2023-03-21T16:07:46.257Z,12.20
2023-03-21T16:10:37.158Z,11.95
2023-03-21T16:13:06.615Z,11.05
2023-03-21T16:15:36.543Z,12.45
2023-03-21T16:18:06.434Z,17.02
2023-03-21T16:20:45.342Z,14.38
2023-03-21T16:23:14.693Z,13.55
2023-03-21T16:25:45.769Z,12.60
2023-03-21T16:28:24.825Z,16.35
2023-03-21T16:30:51.675Z,12.65
2023-03-21T16:33:18.569Z,8.18
2023-03-21T16:35:48.124Z,13.43
2023-03-21T16:38:15.386Z,11.77
2023-03-21T16:40:43.514Z,17.85
2023-03-21T16:43:11.743Z,15.50
2023-03-21T16:45:38.730Z,15.52
2023-03-21T16:48:05.984Z,14.32
2023-03-21T16:50:36.231Z,12.75
2023-03-21T16:53:04.659Z,10.77
2023-03-21T16:55:33.489Z,12.07
2023-03-21T16:58:04.009Z,11.07
2023-03-21T17:00:31.828Z,10.52
2023-03-21T17:03:02.132Z,10.90
2023-03-21T17:05:32.711Z,19.25
2023-03-21T17:08:02.461Z,13.10
2023-03-21T17:10:31.252Z,14.48
2023-03-21T17:12:58.506Z,12.23
2023-03-21T17:15:25.593Z,14.65
2023-03-21T17:17:55.486Z,13.90
2023-03-21T17:20:25.571Z,14.82
2023-03-21T17:22:52.661Z,12.10
2023-03-21T17:25:20.543Z,12.57
2023-03-21T17:27:48.418Z,15.20
2023-03-21T17:30:21.493Z,16.67
2023-03-21T17:35:16.661Z,14.43
2023-03-21T17:37:50.043Z,14.00
2023-03-21T17:40:24.453Z,15.43
2023-03-21T17:42:54.979Z,14.60
2023-03-21T17:45:22.928Z,14.48
2023-03-21T17:47:53.068Z,15.13
2023-03-21T17:50:23.114Z,13.80
2023-03-21T17:52:53.029Z,13.43
2023-03-21T17:55:21.391Z,18.48
2023-03-21T17:57:49.675Z,24.08
2023-03-21T18:00:26.599Z,15.30
2023-03-21T18:02:53.714Z,19.75
2023-03-21T18:05:24.891Z,12.48
2023-03-21T18:10:43.164Z,15.27
2023-03-21T18:13:10.495Z,16.60
2023-03-21T18:15:38.352Z,14.85
2023-03-21T18:18:05.509Z,13.85
2023-03-21T18:23:20.921Z,13.25
2023-03-21T18:25:47.856Z,15.75
2023-03-21T18:28:19.207Z,12.57
2023-03-21T18:33:37.993Z,12.95
2023-03-21T18:36:07.401Z,13.48
2023-03-21T18:38:36.470Z,15.77
2023-03-21T18:41:03.811Z,15.45
2023-03-21T18:46:18.064Z,14.80
2023-03-21T18:48:45.000Z,19.20
2023-03-21T18:51:12.371Z,13.60
2023-03-21T18:53:39.539Z,15.85
2023-03-21T18:56:10.151Z,17.52
2023-03-21T18:58:39.988Z,19.58
2023-03-21T19:01:08.012Z,15.38
2023-03-21T19:03:37.307Z,11.93
2023-03-21T19:06:07.533Z,13.48
2023-03-21T19:08:41.800Z,17.15
2023-03-21T19:11:10.081Z,14.15
2023-03-21T19:13:37.040Z,11.40
2023-03-21T19:16:04.369Z,12.65
2023-03-21T19:21:21.565Z,15.40
2023-03-21T19:26:35.669Z,15.40
2023-03-21T19:29:05.811Z,24.63
2023-03-21T19:31:32.876Z,13.50
2023-03-21T19:33:59.905Z,15.10
2023-03-21T19:36:26.873Z,13.65
2023-03-21T19:38:54.100Z,14.82
2023-03-21T19:41:26.010Z,14.38
2023-03-21T19:43:56.590Z,17.75
2023-03-21T19:46:25.347Z,18.83
2023-03-21T19:48:56.812Z,13.43
2023-03-21T19:51:29.690Z,14.70
2023-03-21T19:54:00.270Z,12.63
2023-03-21T19:56:27.955Z,13.30
2023-03-21T19:58:57.524Z,16.33
2023-03-21T20:01:26.571Z,13.32
2023-03-21T20:03:53.813Z,16.48
2023-03-21T20:06:24.367Z,17.55
2023-03-21T20:11:39.730Z,19.80
2023-03-21T20:14:06.610Z,18.70
2023-03-21T20:16:36.960Z,13.75
2023-03-21T20:19:06.259Z,15.55
2023-03-21T20:21:42.281Z,14.90
2023-03-21T20:24:15.480Z,16.50
2023-03-21T20:26:42.717Z,20.35
2023-03-21T20:31:57.061Z,15.27
2023-03-21T20:34:24.223Z,13.95
2023-03-21T20:36:51.071Z,16.08
2023-03-21T20:39:17.960Z,18.77
2023-03-21T20:41:45.049Z,13.82
2023-03-21T20:44:44.796Z,16.65
2023-03-21T20:47:00.674Z,18.77
2023-03-21T20:49:28.477Z,14.20
2023-03-21T20:54:43.613Z,16.55
2023-03-21T20:57:10.771Z,16.45
2023-03-21T20:59:37.705Z,16.92
2023-03-21T21:02:05.347Z,17.52
2023-03-21T21:04:49.896Z,14.73
2023-03-21T21:07:22.662Z,12.93
2023-03-21T21:09:50.129Z,14.75
2023-03-21T21:12:19.319Z,12.25
2023-03-21T21:14:47.875Z,12.73
2023-03-21T21:17:31.117Z,14.40
2023-03-21T21:20:15.000Z,13.25
2023-03-21T21:22:46.159Z,11.05
2023-03-21T21:25:25.659Z,10.55
2023-03-21T21:27:53.756Z,13.02
2023-03-21T21:30:20.880Z,10.35
2023-03-21T21:32:49.329Z,11.77
2023-03-21T21:35:17.969Z,11.13
2023-03-21T21:37:48.001Z,12.32
2023-03-21T21:40:20.241Z,10.50
2023-03-21T21:42:47.288Z,10.83
2023-03-21T21:45:15.759Z,11.50
2023-03-21T21:47:45.113Z,11.50
2023-03-21T21:50:12.637Z,15.07
2023-03-21T21:52:39.524Z,12.00
2023-03-21T21:55:06.724Z,10.05
2023-03-21T21:57:34.738Z,13.52
2023-03-21T22:00:06.658Z,15.57
2023-03-21T22:02:33.839Z,12.82
2023-03-21T22:05:00.845Z,11.10
2023-03-21T22:07:28.723Z,12.10
2023-03-21T22:09:56.102Z,13.75
2023-03-21T22:12:22.946Z,14.27
2023-03-21T22:14:49.779Z,10.50
2023-03-21T22:17:16.988Z,13.63
2023-03-21T22:19:50.196Z,14.30
2023-03-21T22:22:24.192Z,16.55
2023-03-21T22:24:51.214Z,11.93
2023-03-21T22:27:18.227Z,14.45
2023-03-21T22:29:45.281Z,11.77
2023-03-21T22:32:12.214Z,13.48
2023-03-21T22:34:39.168Z,11.10
2023-03-21T22:37:06.044Z,12.23
2023-03-21T22:39:33.015Z,19.60
2023-03-21T22:42:06.086Z,11.20
2023-03-21T22:44:36.143Z,12.00
2023-03-21T22:47:05.036Z,10.25
2023-03-21T22:49:35.455Z,12.13
2023-03-21T22:52:03.458Z,13.07
2023-03-21T22:54:30.932Z,13.25
2023-03-21T22:56:58.072Z,14.10
2023-03-21T22:59:25.922Z,15.27
2023-03-21T23:01:53.141Z,12.38
2023-03-21T23:04:20.601Z,10.77
2023-03-21T23:06:48.235Z,13.85
2023-03-21T23:09:15.282Z,12.20
2023-03-21T23:11:43.054Z,12.70
2023-03-21T23:14:10.188Z,13.18
2023-03-21T23:16:38.430Z,10.82
2023-03-21T23:19:06.262Z,12.18
2023-03-21T23:21:35.128Z,17.58
2023-03-21T23:24:02.053Z,15.73
2023-03-21T23:26:29.138Z,12.73
2023-03-21T23:28:56.208Z,12.48
2023-03-21T23:31:25.985Z,15.40
2023-03-21T23:33:53.771Z,18.08
2023-03-21T23:36:21.783Z,15.65
2023-03-21T23:38:52.738Z,15.52
2023-03-21T23:41:22.007Z,14.90
2023-03-21T23:43:49.485Z,14.93
2023-03-21T23:46:17.797Z,14.95
2023-03-21T23:48:46.045Z,18.02
2023-03-21T23:51:15.034Z,14.10
2023-03-21T23:53:43.117Z,15.55
2023-03-21T23:56:26.327Z,15.27
2023-03-21T23:58:53.143Z,19.20
